createdAt,value
2019-03-18T00:00:06.542Z,8.70
2019-03-18T00:01:06.559Z,7.50
2019-03-18T00:02:06.517Z,7.20
2019-03-18T00:03:06.507Z,6.00
2019-03-18T00:04:06.518Z,6.10
2019-03-18T00:05:06.490Z,5.60
2019-03-18T00:06:06.484Z,6.20
2019-03-18T00:07:06.471Z,5.90
2019-03-18T00:08:06.467Z,6.30
2019-03-18T00:09:06.479Z,5.60
2019-03-18T00:10:06.439Z,6.20
2019-03-18T00:11:06.441Z,6.80
2019-03-18T00:12:06.423Z,7.70
2019-03-18T00:13:06.413Z,5.80
2019-03-18T00:14:06.426Z,7.00
2019-03-18T00:15:06.395Z,6.90
2019-03-18T00:16:06.396Z,7.50
2019-03-18T00:17:06.366Z,8.20
2019-03-18T00:18:06.356Z,7.20
2019-03-18T00:19:06.357Z,6.50
2019-03-18T00:20:06.341Z,5.80
2019-03-18T00:21:06.316Z,6.40
2019-03-18T00:22:06.334Z,6.40
2019-03-18T00:23:06.319Z,6.00
2019-03-18T00:24:06.306Z,6.50
2019-03-18T00:25:06.273Z,6.30
2019-03-18T00:26:06.263Z,6.30
2019-03-18T00:27:06.265Z,7.80
2019-03-18T00:28:06.252Z,7.10
2019-03-18T00:29:06.256Z,7.50
2019-03-18T00:30:06.244Z,6.70
2019-03-18T00:31:06.218Z,6.70
2019-03-18T00:32:06.211Z,7.00
2019-03-18T00:33:06.196Z,7.30
2019-03-18T00:34:06.193Z,7.50
2019-03-18T00:35:06.208Z,6.30
2019-03-18T00:36:06.160Z,6.80
2019-03-18T00:37:06.155Z,7.90
2019-03-18T00:38:06.150Z,6.70
2019-03-18T00:39:06.143Z,6.90
2019-03-18T00:40:06.135Z,7.20
2019-03-18T00:41:06.107Z,8.20
2019-03-18T00:42:06.096Z,7.40
2019-03-18T00:43:06.095Z,6.90
2019-03-18T00:44:06.105Z,6.70
2019-03-18T00:45:14.861Z,6.30
2019-03-18T00:46:06.062Z,7.30
2019-03-18T00:47:06.054Z,7.50
2019-03-18T00:48:06.036Z,7.10
2019-03-18T00:49:06.047Z,7.40
2019-03-18T00:50:06.023Z,6.90
2019-03-18T00:51:06.007Z,7.50
2019-03-18T00:52:06.003Z,6.50
2019-03-18T00:53:05.975Z,6.40
2019-03-18T00:54:05.977Z,5.80
2019-03-18T00:55:05.971Z,7.00
2019-03-18T00:56:05.944Z,6.60
2019-03-18T00:57:05.931Z,7.60
2019-03-18T00:58:05.924Z,7.40
2019-03-18T00:59:05.939Z,6.60
2019-03-18T01:00:05.898Z,9.50
2019-03-18T01:01:05.887Z,6.90
2019-03-18T01:02:05.878Z,7.30
2019-03-18T01:03:05.873Z,7.70
2019-03-18T01:04:05.884Z,6.80
2019-03-18T01:05:05.858Z,6.10
2019-03-18T01:06:05.849Z,7.20
2019-03-18T01:07:05.841Z,7.90
2019-03-18T01:08:05.828Z,5.80
2019-03-18T01:09:05.820Z,6.50
2019-03-18T01:11:15.011Z,7.90
2019-03-18T01:12:15.985Z,8.00
2019-03-18T01:13:15.977Z,7.90
2019-03-18T01:14:16.037Z,5.90
2019-03-18T01:15:27.452Z,7.10
2019-03-18T01:16:15.970Z,7.40
2019-03-18T01:17:15.954Z,7.30
2019-03-18T01:18:15.940Z,7.20
2019-03-18T01:19:15.937Z,6.20
2019-03-18T01:20:15.935Z,6.50
2019-03-18T01:21:15.898Z,5.70
2019-03-18T01:22:15.881Z,7.80
2019-03-18T01:23:15.873Z,5.50
2019-03-18T01:24:15.878Z,6.70
2019-03-18T01:25:15.861Z,6.80
2019-03-18T01:26:15.850Z,7.60
2019-03-18T01:27:15.827Z,6.70
2019-03-18T01:28:15.825Z,6.40
2019-03-18T01:29:15.845Z,7.20
2019-03-18T01:30:15.793Z,5.00
2019-03-18T01:31:15.783Z,5.30
2019-03-18T01:32:15.767Z,6.90
2019-03-18T01:33:15.761Z,7.00
2019-03-18T01:34:15.779Z,6.00
2019-03-18T01:35:15.749Z,6.40
2019-03-18T01:36:15.747Z,5.70
2019-03-18T01:37:15.717Z,5.20
2019-03-18T01:38:15.716Z,7.30
2019-03-18T01:39:15.715Z,5.30
2019-03-18T01:40:15.689Z,6.10
2019-03-18T01:41:15.693Z,6.60
2019-03-18T01:42:16.955Z,7.10
2019-03-18T01:43:15.661Z,6.60
2019-03-18T01:44:15.666Z,6.30
2019-03-18T01:45:15.636Z,6.40
2019-03-18T01:46:15.626Z,5.80
2019-03-18T01:47:15.609Z,6.40
2019-03-18T01:48:15.619Z,5.50
2019-03-18T01:49:15.635Z,5.60
2019-03-18T01:50:15.606Z,5.80
2019-03-18T01:51:15.573Z,7.00
2019-03-18T01:52:15.567Z,5.60
2019-03-18T01:53:15.556Z,5.80
2019-03-18T01:54:15.550Z,5.30
2019-03-18T01:55:15.559Z,7.20
2019-03-18T01:56:15.516Z,6.30
2019-03-18T01:57:15.512Z,5.50
2019-03-18T01:58:15.493Z,5.30
2019-03-18T01:59:15.487Z,5.70
2019-03-18T02:00:15.480Z,7.70
2019-03-18T02:01:15.464Z,6.40
2019-03-18T02:02:15.448Z,5.80
2019-03-18T02:03:15.442Z,6.70
2019-03-18T02:04:15.427Z,7.10
2019-03-18T02:05:15.445Z,5.50
2019-03-18T02:06:15.407Z,6.30
2019-03-18T02:07:15.400Z,6.00
2019-03-18T02:08:15.383Z,7.10
2019-03-18T02:09:15.375Z,5.60
2019-03-18T02:10:15.398Z,7.60
2019-03-18T02:11:15.346Z,8.00
2019-03-18T02:12:15.363Z,8.20
2019-03-18T02:13:15.332Z,7.00
2019-03-18T02:14:15.317Z,7.50
2019-03-18T02:15:15.331Z,6.80
2019-03-18T02:16:15.292Z,6.90
2019-03-18T02:17:15.288Z,6.60
2019-03-18T02:18:15.267Z,6.30
2019-03-18T02:19:15.255Z,5.90
2019-03-18T02:20:15.269Z,5.70
2019-03-18T02:21:15.244Z,6.50
2019-03-18T02:22:15.231Z,7.90
2019-03-18T02:23:15.223Z,6.70
2019-03-18T02:24:15.215Z,5.20
2019-03-18T02:25:15.255Z,7.10
2019-03-18T02:26:15.200Z,7.70
2019-03-18T02:27:15.193Z,6.80
2019-03-18T02:28:15.162Z,7.70
2019-03-18T02:29:15.161Z,6.40
2019-03-18T02:30:15.161Z,7.60
2019-03-18T02:31:15.134Z,7.30
2019-03-18T02:32:15.122Z,8.00
2019-03-18T02:33:15.130Z,7.10
2019-03-18T02:34:15.106Z,6.70
2019-03-18T02:35:15.123Z,9.20
2019-03-18T02:36:15.091Z,8.80
2019-03-18T02:37:15.077Z,7.60
2019-03-18T02:38:15.066Z,7.10
2019-03-18T02:39:15.070Z,10.20
2019-03-18T02:40:15.051Z,8.70
2019-03-18T02:41:15.063Z,7.40
2019-03-18T02:42:15.007Z,9.60
2019-03-18T02:43:15.012Z,8.90
2019-03-18T02:44:14.994Z,8.10
2019-03-18T02:45:15.015Z,8.90
2019-03-18T02:46:14.982Z,6.80
2019-03-18T02:47:14.966Z,8.00
2019-03-18T02:48:14.963Z,10.80
2019-03-18T02:49:14.928Z,7.20
2019-03-18T02:50:14.947Z,9.20
2019-03-18T02:51:14.934Z,6.90
2019-03-18T02:52:14.904Z,8.20
2019-03-18T02:53:14.888Z,7.70
2019-03-18T02:54:14.877Z,6.40
2019-03-18T02:55:14.889Z,9.10
2019-03-18T02:56:14.863Z,9.10
2019-03-18T02:57:14.855Z,8.40
2019-03-18T02:58:14.839Z,8.50
2019-03-18T02:59:14.833Z,8.80
2019-03-18T03:00:14.853Z,8.80
2019-03-18T03:01:14.802Z,7.20
2019-03-18T03:02:14.795Z,7.60
2019-03-18T03:03:14.794Z,10.10
2019-03-18T03:04:14.779Z,8.00
2019-03-18T03:05:14.804Z,9.50
2019-03-18T03:06:14.754Z,6.80
2019-03-18T03:07:14.740Z,8.60
2019-03-18T03:08:14.726Z,7.80
2019-03-18T03:09:14.740Z,10.60
2019-03-18T03:10:14.821Z,8.70
2019-03-18T03:12:24.823Z,9.80
2019-03-18T03:13:25.852Z,8.90
2019-03-18T03:14:25.803Z,8.80
2019-03-18T03:15:25.810Z,8.90
2019-03-18T03:16:27.568Z,10.30
2019-03-18T03:17:25.774Z,9.80
2019-03-18T03:18:25.770Z,8.90
2019-03-18T03:19:25.779Z,8.90
2019-03-18T03:20:25.793Z,9.30
2019-03-18T03:21:25.748Z,10.80
2019-03-18T03:22:25.745Z,9.40
2019-03-18T03:23:25.741Z,10.30
2019-03-18T03:24:25.709Z,9.70
2019-03-18T03:25:25.699Z,10.00
2019-03-18T03:26:25.688Z,10.10
2019-03-18T03:27:25.659Z,11.90
2019-03-18T03:28:25.679Z,10.80
2019-03-18T03:29:25.640Z,12.30
2019-03-18T03:30:25.649Z,11.00
2019-03-18T03:31:25.629Z,12.20
2019-03-18T03:32:25.619Z,12.00
2019-03-18T03:33:25.636Z,11.70
2019-03-18T03:34:25.601Z,12.30
2019-03-18T03:35:25.623Z,11.60
2019-03-18T03:36:25.559Z,11.90
2019-03-18T03:37:25.552Z,12.30
2019-03-18T03:38:25.584Z,13.90
2019-03-18T03:39:25.531Z,11.40
2019-03-18T03:40:25.543Z,13.10
2019-03-18T03:41:25.506Z,13.60
2019-03-18T03:42:25.522Z,16.10
2019-03-18T03:43:25.491Z,13.40
2019-03-18T03:44:25.487Z,14.30
2019-03-18T03:45:25.482Z,14.50
2019-03-18T03:46:41.911Z,14.70
2019-03-18T03:47:25.490Z,14.20
2019-03-18T03:48:25.454Z,15.40
2019-03-18T03:49:25.447Z,15.60
2019-03-18T03:50:25.500Z,15.90
2019-03-18T03:51:25.427Z,15.40
2019-03-18T03:52:25.398Z,15.80
2019-03-18T03:53:25.390Z,15.20
2019-03-18T03:54:25.399Z,15.90
2019-03-18T03:55:25.375Z,16.00
2019-03-18T03:56:25.375Z,17.50
2019-03-18T03:57:25.345Z,16.20
2019-03-18T03:58:25.337Z,16.10
2019-03-18T03:59:25.319Z,16.60
2019-03-18T04:00:25.302Z,16.20
2019-03-18T04:01:29.111Z,15.60
2019-03-18T04:02:25.285Z,17.90
2019-03-18T04:03:37.706Z,17.90
2019-03-18T04:04:25.270Z,18.20
2019-03-18T04:05:25.257Z,17.90
2019-03-18T04:06:25.282Z,18.90
2019-03-18T04:07:25.241Z,18.00
2019-03-18T04:08:25.221Z,19.10
2019-03-18T04:09:25.222Z,18.20
2019-03-18T04:10:25.209Z,18.30
2019-03-18T04:11:25.204Z,18.80
2019-03-18T04:12:25.172Z,18.40
2019-03-18T04:13:25.179Z,19.10
2019-03-18T04:14:25.149Z,18.90
2019-03-18T04:15:25.151Z,17.00
2019-03-18T04:16:25.153Z,19.00
2019-03-18T04:17:25.138Z,17.70
2019-03-18T04:18:25.117Z,15.40
2019-03-18T04:19:25.109Z,17.50
2019-03-18T04:20:25.097Z,17.30
2019-03-18T04:21:25.138Z,18.80
2019-03-18T04:22:25.068Z,19.60
2019-03-18T04:23:25.074Z,18.60
2019-03-18T04:24:25.038Z,18.90
2019-03-18T04:25:25.035Z,18.00
2019-03-18T04:26:25.062Z,19.00
2019-03-18T04:27:25.216Z,18.40
2019-03-18T04:28:24.997Z,16.70
2019-03-18T04:29:25.038Z,18.70
2019-03-18T04:30:24.988Z,18.30
2019-03-18T04:31:24.985Z,18.00
2019-03-18T04:32:24.970Z,17.70
2019-03-18T04:33:24.951Z,19.60
2019-03-18T04:34:24.939Z,19.40
2019-03-18T04:35:24.921Z,19.00
2019-03-18T04:36:24.928Z,20.40
2019-03-18T04:37:24.903Z,18.70
2019-03-18T04:38:24.893Z,24.30
2019-03-18T04:39:24.884Z,20.50
2019-03-18T04:40:24.890Z,22.40
2019-03-18T04:41:24.899Z,24.30
2019-03-18T04:42:24.863Z,21.80
2019-03-18T04:43:24.855Z,21.10
2019-03-18T04:44:24.849Z,21.10
2019-03-18T04:45:24.818Z,20.40
2019-03-18T04:46:24.823Z,20.80
2019-03-18T04:47:24.829Z,18.80
2019-03-18T04:48:24.800Z,20.60
2019-03-18T04:49:24.792Z,18.70
2019-03-18T04:50:24.795Z,20.30
2019-03-18T04:51:24.762Z,18.90
2019-03-18T04:52:24.767Z,19.00
2019-03-18T04:53:24.749Z,19.10
2019-03-18T04:54:24.738Z,19.70
2019-03-18T04:55:24.715Z,19.40
2019-03-18T04:56:24.699Z,18.00
2019-03-18T04:57:24.719Z,18.80
2019-03-18T04:58:24.708Z,18.50
2019-03-18T04:59:24.685Z,17.20
2019-03-18T05:00:24.657Z,19.20
2019-03-18T05:01:24.670Z,17.50
2019-03-18T05:02:24.669Z,17.60
2019-03-18T05:03:24.629Z,17.60
2019-03-18T05:04:24.637Z,17.50
2019-03-18T05:05:24.604Z,17.30
2019-03-18T05:06:24.597Z,18.20
2019-03-18T05:07:24.616Z,19.60
2019-03-18T05:08:24.583Z,17.90
2019-03-18T05:09:24.563Z,18.70
2019-03-18T05:10:24.559Z,18.70
2019-03-18T05:11:24.538Z,18.30
2019-03-18T05:13:33.756Z,20.60
2019-03-18T05:14:34.714Z,19.10
2019-03-18T05:15:34.698Z,19.10
2019-03-18T05:16:34.684Z,18.60
2019-03-18T05:17:34.690Z,18.30
2019-03-18T05:18:36.686Z,19.10
2019-03-18T05:19:34.664Z,19.40
2019-03-18T05:20:34.647Z,19.80
2019-03-18T05:21:34.639Z,19.00
2019-03-18T05:22:34.741Z,19.30
2019-03-18T05:23:34.636Z,19.40
2019-03-18T05:24:34.645Z,19.60
2019-03-18T05:25:34.596Z,19.60
2019-03-18T05:26:34.591Z,18.90
2019-03-18T05:27:34.579Z,20.10
2019-03-18T05:28:34.560Z,20.70
2019-03-18T05:29:34.551Z,20.00
2019-03-18T05:30:34.536Z,20.10
2019-03-18T05:31:34.525Z,19.10
2019-03-18T05:32:34.550Z,20.20
2019-03-18T05:33:34.511Z,19.40
2019-03-18T05:34:34.490Z,21.00
2019-03-18T05:35:34.481Z,21.70
2019-03-18T05:36:34.470Z,19.50
2019-03-18T05:37:34.480Z,19.50
2019-03-18T05:38:34.453Z,21.00
2019-03-18T05:39:34.471Z,22.10
2019-03-18T05:40:34.430Z,20.80
2019-03-18T05:41:34.416Z,22.40
2019-03-18T05:42:34.420Z,20.70
2019-03-18T05:43:34.386Z,20.40
2019-03-18T05:44:34.388Z,18.30
2019-03-18T05:45:34.363Z,19.60
2019-03-18T05:46:34.360Z,18.70
2019-03-18T05:47:39.161Z,19.50
2019-03-18T05:48:34.333Z,20.10
2019-03-18T05:49:34.325Z,18.10
2019-03-18T05:50:34.336Z,19.30
2019-03-18T05:51:34.350Z,19.40
2019-03-18T05:52:34.326Z,18.70
2019-03-18T05:53:34.295Z,20.00
2019-03-18T05:54:34.295Z,19.20
2019-03-18T05:55:34.255Z,18.90
2019-03-18T05:56:34.257Z,19.70
2019-03-18T05:57:34.261Z,19.30
2019-03-18T05:58:34.232Z,22.20
2019-03-18T05:59:34.217Z,19.90
2019-03-18T06:00:34.214Z,18.00
2019-03-18T06:01:34.197Z,20.60
2019-03-18T06:02:34.203Z,21.40
2019-03-18T06:03:34.170Z,20.70
2019-03-18T06:04:34.170Z,21.60
2019-03-18T06:05:34.168Z,19.80
2019-03-18T06:06:34.138Z,20.60
2019-03-18T06:07:34.205Z,21.80
2019-03-18T06:08:34.126Z,19.90
2019-03-18T06:09:34.108Z,20.90
2019-03-18T06:10:34.105Z,19.20
2019-03-18T06:11:34.085Z,19.40
2019-03-18T06:12:34.096Z,17.50
2019-03-18T06:13:34.077Z,18.30
2019-03-18T06:14:34.058Z,18.30
2019-03-18T06:15:34.047Z,16.30
2019-03-18T06:16:34.033Z,18.20
2019-03-18T06:17:34.033Z,18.70
2019-03-18T06:18:34.011Z,20.40
2019-03-18T06:19:34.005Z,18.10
2019-03-18T06:20:33.986Z,17.30
2019-03-18T06:21:33.974Z,16.60
2019-03-18T06:22:33.980Z,17.70
2019-03-18T06:23:33.989Z,18.30
2019-03-18T06:24:33.970Z,17.60
2019-03-18T06:25:33.978Z,19.80
2019-03-18T06:26:33.929Z,17.90
2019-03-18T06:27:33.912Z,17.30
2019-03-18T06:28:33.921Z,17.20
2019-03-18T06:29:33.896Z,17.90
2019-03-18T06:30:33.904Z,17.40
2019-03-18T06:31:33.864Z,18.00
2019-03-18T06:32:33.866Z,17.70
2019-03-18T06:33:33.873Z,18.00
2019-03-18T06:34:33.840Z,19.00
2019-03-18T06:35:33.818Z,18.60
2019-03-18T06:36:33.815Z,19.40
2019-03-18T06:37:33.799Z,18.80
2019-03-18T06:38:33.844Z,17.10
2019-03-18T06:39:33.868Z,18.80
2019-03-18T06:40:33.775Z,19.20
2019-03-18T06:41:33.767Z,18.50
2019-03-18T06:42:33.782Z,19.60
2019-03-18T06:43:33.774Z,18.20
2019-03-18T06:44:33.804Z,19.30
2019-03-18T06:45:33.765Z,18.30
2019-03-18T06:46:33.705Z,18.30
2019-03-18T06:47:33.734Z,19.80
2019-03-18T06:48:33.710Z,20.90
2019-03-18T06:49:33.669Z,21.60
2019-03-18T06:50:33.821Z,19.30
2019-03-18T06:51:33.737Z,19.40
2019-03-18T06:52:33.829Z,18.70
2019-03-18T06:53:33.712Z,19.40
2019-03-18T06:54:33.929Z,18.60
2019-03-18T06:55:33.614Z,18.50
2019-03-18T06:56:33.605Z,21.90
2019-03-18T06:57:33.615Z,22.40
2019-03-18T06:58:33.604Z,18.50
2019-03-18T06:59:33.568Z,21.30
2019-03-18T07:00:33.557Z,18.20
2019-03-18T07:01:33.541Z,18.30
2019-03-18T07:02:33.527Z,19.30
2019-03-18T07:03:33.534Z,18.60
2019-03-18T07:04:33.506Z,21.50
2019-03-18T07:05:33.505Z,17.90
2019-03-18T07:06:33.494Z,18.60
2019-03-18T07:07:33.496Z,19.90
2019-03-18T07:08:33.470Z,19.30
2019-03-18T07:09:33.465Z,18.00
2019-03-18T07:10:33.518Z,19.30
2019-03-18T07:11:33.908Z,18.00
2019-03-18T07:12:33.460Z,18.80
2019-03-18T07:14:43.038Z,18.30
2019-03-18T07:15:43.606Z,17.90
2019-03-18T07:16:43.585Z,17.40
2019-03-18T07:17:43.594Z,18.00
2019-03-18T07:18:43.576Z,16.30
2019-03-18T07:19:43.550Z,20.10
2019-03-18T07:20:43.549Z,18.50
2019-03-18T07:21:43.562Z,17.50
2019-03-18T07:22:43.553Z,16.30
2019-03-18T07:23:43.516Z,18.00
2019-03-18T07:24:43.508Z,16.70
2019-03-18T07:25:43.512Z,16.50
2019-03-18T07:26:43.555Z,19.20
2019-03-18T07:27:43.501Z,17.50
2019-03-18T07:28:43.473Z,15.90
2019-03-18T07:29:43.485Z,14.50
2019-03-18T07:30:43.457Z,16.50
2019-03-18T07:31:43.476Z,17.00
2019-03-18T07:32:43.630Z,15.90
2019-03-18T07:33:43.406Z,15.60
2019-03-18T07:34:43.417Z,17.60
2019-03-18T07:35:43.394Z,14.40
2019-03-18T07:36:43.375Z,14.00
2019-03-18T07:37:43.402Z,17.30
2019-03-18T07:38:43.360Z,16.00
2019-03-18T07:39:43.349Z,17.10
2019-03-18T07:40:43.337Z,15.10
2019-03-18T07:41:43.325Z,17.90
2019-03-18T07:42:43.332Z,18.20
2019-03-18T07:43:44.397Z,17.00
2019-03-18T07:44:43.280Z,14.90
2019-03-18T07:45:43.332Z,17.80
2019-03-18T07:46:43.275Z,16.30
2019-03-18T07:47:43.497Z,17.10
2019-03-18T07:48:43.261Z,17.60
2019-03-18T07:49:43.287Z,16.80
2019-03-18T07:50:43.230Z,14.60
2019-03-18T07:51:43.204Z,19.80
2019-03-18T07:52:43.253Z,19.90
2019-03-18T07:53:43.195Z,19.50
2019-03-18T07:54:43.199Z,18.20
2019-03-18T07:55:43.201Z,15.80
2019-03-18T07:56:43.200Z,17.50
2019-03-18T07:57:43.184Z,19.90
2019-03-18T07:58:43.143Z,18.60
2019-03-18T07:59:43.160Z,18.00
2019-03-18T08:00:43.173Z,15.80
2019-03-18T08:01:43.150Z,20.90
2019-03-18T08:02:43.170Z,16.30
2019-03-18T08:03:43.103Z,19.70
2019-03-18T08:04:43.116Z,17.00
2019-03-18T08:05:43.099Z,19.10
2019-03-18T08:06:43.111Z,17.90
2019-03-18T08:07:43.065Z,17.70
2019-03-18T08:08:43.124Z,17.80
2019-03-18T08:09:43.111Z,18.20
2019-03-18T08:10:43.097Z,17.60
2019-03-18T08:11:43.008Z,16.70
2019-03-18T08:12:42.989Z,16.70
2019-03-18T08:13:43.047Z,19.40
2019-03-18T08:14:42.988Z,18.90
2019-03-18T08:15:43.003Z,16.10
2019-03-18T08:16:42.943Z,17.60
2019-03-18T08:17:42.940Z,15.90
2019-03-18T08:18:43.670Z,15.00
2019-03-18T08:19:42.908Z,15.90
2019-03-18T08:20:42.919Z,17.40
2019-03-18T08:21:42.916Z,17.70
2019-03-18T08:22:42.974Z,15.80
2019-03-18T08:23:42.898Z,17.50
2019-03-18T08:24:42.889Z,17.60
2019-03-18T08:25:42.871Z,18.90
2019-03-18T08:26:42.839Z,17.20
2019-03-18T08:27:42.858Z,15.50
2019-03-18T08:28:42.839Z,16.00
2019-03-18T08:29:42.796Z,18.10
2019-03-18T08:30:42.820Z,17.10
2019-03-18T08:31:42.790Z,14.60
2019-03-18T08:32:42.847Z,15.60
2019-03-18T08:33:42.830Z,17.10
2019-03-18T08:34:42.769Z,16.40
2019-03-18T08:35:42.767Z,13.40
2019-03-18T08:36:42.768Z,14.40
2019-03-18T08:37:42.753Z,15.10
2019-03-18T08:38:42.822Z,15.20
2019-03-18T08:39:42.698Z,14.70
2019-03-18T08:40:42.700Z,14.40
2019-03-18T08:41:42.693Z,16.60
2019-03-18T08:42:42.686Z,14.40
2019-03-18T08:43:42.767Z,14.10
2019-03-18T08:44:42.789Z,13.70
2019-03-18T08:45:42.663Z,13.90
2019-03-18T08:46:42.788Z,16.00
2019-03-18T08:47:42.619Z,16.10
2019-03-18T08:48:55.142Z,12.50
2019-03-18T08:49:42.583Z,16.80
2019-03-18T08:50:42.574Z,18.10
2019-03-18T08:51:42.562Z,12.30
2019-03-18T08:52:42.559Z,14.60
2019-03-18T08:53:42.579Z,17.10
2019-03-18T08:54:42.535Z,13.90
2019-03-18T08:55:42.520Z,14.80
2019-03-18T08:56:42.511Z,13.90
2019-03-18T08:57:42.505Z,12.30
2019-03-18T08:58:42.510Z,17.60
2019-03-18T08:59:42.469Z,13.90
2019-03-18T09:00:42.460Z,15.90
2019-03-18T09:01:42.460Z,15.30
2019-03-18T09:02:42.443Z,13.40
2019-03-18T09:03:42.451Z,16.30
2019-03-18T09:04:42.415Z,16.00
2019-03-18T09:05:42.417Z,16.80
2019-03-18T09:06:42.426Z,14.40
2019-03-18T09:07:42.403Z,19.70
2019-03-18T09:08:42.397Z,17.70
2019-03-18T09:09:42.388Z,14.90
2019-03-18T09:10:42.379Z,14.70
2019-03-18T09:11:42.411Z,16.30
2019-03-18T09:12:42.771Z,16.60
2019-03-18T09:13:42.345Z,16.10
2019-03-18T09:15:51.559Z,15.50
2019-03-18T09:16:52.523Z,15.50
2019-03-18T09:17:52.513Z,13.30
2019-03-18T09:18:52.526Z,16.20
2019-03-18T09:19:52.502Z,13.60
2019-03-18T09:20:52.487Z,15.90
2019-03-18T09:21:52.489Z,18.70
2019-03-18T09:22:52.521Z,15.60
2019-03-18T09:23:52.466Z,15.30
2019-03-18T09:24:52.441Z,16.00
2019-03-18T09:25:52.438Z,14.90
2019-03-18T09:27:01.872Z,15.50
2019-03-18T09:27:52.401Z,13.60
2019-03-18T09:28:52.424Z,16.20
2019-03-18T09:29:52.384Z,19.40
2019-03-18T09:30:52.382Z,15.20
2019-03-18T09:31:52.359Z,15.80
2019-03-18T09:32:52.359Z,15.40
2019-03-18T09:33:52.377Z,13.80
2019-03-18T09:34:54.663Z,15.50
2019-03-18T09:35:53.332Z,15.80
2019-03-18T09:36:52.350Z,15.00
2019-03-18T09:37:52.288Z,16.50
2019-03-18T09:38:52.306Z,14.50
2019-03-18T09:39:52.281Z,17.10
2019-03-18T09:40:52.260Z,16.80
2019-03-18T09:41:52.254Z,15.80
2019-03-18T09:42:52.268Z,15.40
2019-03-18T09:43:52.244Z,17.40
2019-03-18T09:44:52.225Z,13.10
2019-03-18T09:45:54.490Z,15.50
2019-03-18T09:46:52.199Z,15.20
2019-03-18T09:47:52.197Z,15.90
2019-03-18T09:48:52.199Z,15.10
2019-03-18T09:49:52.173Z,13.40
2019-03-18T09:50:52.168Z,16.40
2019-03-18T09:51:52.161Z,12.40
2019-03-18T09:52:52.137Z,18.10
2019-03-18T09:53:52.154Z,12.80
2019-03-18T09:54:52.107Z,13.30
2019-03-18T09:55:52.097Z,17.90
2019-03-18T09:56:52.096Z,12.10
2019-03-18T09:57:52.082Z,14.00
2019-03-18T09:58:52.089Z,16.50
2019-03-18T09:59:52.066Z,16.80
2019-03-18T10:00:52.150Z,12.90
2019-03-18T10:01:52.052Z,12.10
2019-03-18T10:02:52.046Z,9.70
2019-03-18T10:03:52.046Z,18.50
2019-03-18T10:04:52.025Z,11.80
2019-03-18T10:05:52.058Z,13.40
2019-03-18T10:06:51.984Z,12.70
2019-03-18T10:07:52.000Z,12.40
2019-03-18T10:08:51.986Z,12.40
2019-03-18T10:09:51.988Z,12.30
2019-03-18T10:10:51.927Z,14.80
2019-03-18T10:11:51.937Z,13.50
2019-03-18T10:12:51.914Z,12.70
2019-03-18T10:13:51.925Z,13.70
2019-03-18T10:14:51.923Z,16.90
2019-03-18T10:15:52.231Z,12.90
2019-03-18T10:16:51.888Z,13.40
2019-03-18T10:17:51.866Z,13.60
2019-03-18T10:18:51.850Z,14.50
2019-03-18T10:19:53.537Z,13.40
2019-03-18T10:20:51.820Z,11.90
2019-03-18T10:21:51.822Z,11.00
2019-03-18T10:22:51.808Z,13.00
2019-03-18T10:23:51.813Z,14.10
2019-03-18T10:24:51.836Z,15.30
2019-03-18T10:25:52.181Z,12.00
2019-03-18T10:26:51.872Z,15.40
2019-03-18T10:27:51.903Z,13.70
2019-03-18T10:28:51.832Z,10.70
2019-03-18T10:29:52.322Z,9.90
2019-03-18T10:30:52.078Z,9.60
2019-03-18T10:31:51.712Z,12.90
2019-03-18T10:32:51.717Z,12.00
2019-03-18T10:33:51.723Z,15.70
2019-03-18T10:34:51.699Z,13.20
2019-03-18T10:35:54.036Z,11.50
2019-03-18T10:36:52.589Z,11.70
2019-03-18T10:37:52.060Z,11.90
2019-03-18T10:38:52.886Z,14.50
2019-03-18T10:39:51.647Z,11.20
2019-03-18T10:40:51.619Z,11.80
2019-03-18T10:41:51.601Z,12.10
2019-03-18T10:42:51.585Z,13.30
2019-03-18T10:43:51.580Z,10.30
2019-03-18T10:44:51.594Z,9.70
2019-03-18T10:45:51.563Z,9.60
2019-03-18T10:46:51.548Z,15.10
2019-03-18T10:47:51.548Z,12.20
2019-03-18T10:48:51.524Z,12.80
2019-03-18T10:49:51.525Z,11.00
2019-03-18T10:50:51.501Z,13.10
2019-03-18T10:51:51.497Z,14.60
2019-03-18T10:52:51.488Z,13.00
2019-03-18T10:53:52.265Z,14.00
2019-03-18T10:54:51.486Z,10.20
2019-03-18T10:55:51.450Z,10.70
2019-03-18T10:56:51.466Z,11.30
2019-03-18T10:57:51.427Z,13.90
2019-03-18T10:58:51.412Z,11.70
2019-03-18T10:59:51.427Z,11.80
2019-03-18T11:00:51.400Z,12.40
2019-03-18T11:01:51.386Z,9.40
2019-03-18T11:02:51.389Z,12.20
2019-03-18T11:03:51.369Z,12.40
2019-03-18T11:04:51.377Z,11.10
2019-03-18T11:05:51.337Z,11.60
2019-03-18T11:06:51.329Z,11.30
2019-03-18T11:07:51.987Z,10.50
2019-03-18T11:08:51.329Z,11.10
2019-03-18T11:09:52.322Z,10.10
2019-03-18T11:10:51.291Z,10.90
2019-03-18T11:11:51.314Z,12.60
2019-03-18T11:12:51.265Z,11.90
2019-03-18T11:13:51.280Z,13.50
2019-03-18T11:14:51.300Z,9.50
2019-03-18T11:17:22.397Z,8.90
2019-03-18T11:18:24.308Z,9.10
2019-03-18T11:19:23.352Z,9.40
2019-03-18T11:20:23.740Z,7.90
2019-03-18T11:21:23.331Z,9.40
2019-03-18T11:22:23.328Z,10.10
2019-03-18T11:23:23.414Z,8.70
2019-03-18T11:24:23.326Z,10.10
2019-03-18T11:25:24.700Z,7.00
2019-03-18T11:26:23.388Z,6.60
2019-03-18T11:27:23.268Z,8.00
2019-03-18T11:28:23.271Z,8.80
2019-03-18T11:29:23.265Z,7.10
2019-03-18T11:30:23.265Z,7.50
2019-03-18T11:31:23.252Z,9.60
2019-03-18T11:32:23.228Z,6.90
2019-03-18T11:33:24.692Z,8.20
2019-03-18T11:34:23.191Z,8.50
2019-03-18T11:35:23.723Z,8.80
2019-03-18T11:36:23.168Z,9.60
2019-03-18T11:37:23.161Z,8.10
2019-03-18T11:38:23.144Z,10.50
2019-03-18T11:39:23.128Z,7.10
2019-03-18T11:40:23.153Z,9.20
2019-03-18T11:41:23.103Z,7.40
2019-03-18T11:42:23.110Z,9.90
2019-03-18T11:43:23.108Z,9.90
2019-03-18T11:44:23.083Z,6.90
2019-03-18T11:45:23.112Z,9.00
2019-03-18T11:46:23.080Z,10.00
2019-03-18T11:47:23.121Z,8.10
2019-03-18T11:48:23.033Z,8.60
2019-03-18T11:49:23.037Z,5.70
2019-03-18T11:50:23.035Z,10.50
2019-03-18T11:51:23.020Z,8.00
2019-03-18T11:52:23.140Z,10.20
2019-03-18T11:53:23.064Z,7.70
2019-03-18T11:54:23.040Z,10.30
2019-03-18T11:55:23.245Z,8.40
2019-03-18T11:56:22.996Z,10.70
2019-03-18T11:57:22.957Z,8.90
2019-03-18T11:58:22.950Z,7.90
2019-03-18T11:59:22.938Z,10.20
2019-03-18T12:00:22.929Z,11.70
2019-03-18T12:01:22.907Z,7.50
2019-03-18T12:02:27.661Z,9.70
2019-03-18T12:03:22.920Z,7.20
2019-03-18T12:04:23.113Z,8.10
2019-03-18T12:05:22.962Z,7.40
2019-03-18T12:06:22.879Z,7.50
2019-03-18T12:07:22.882Z,7.60
2019-03-18T12:08:22.835Z,7.10
2019-03-18T12:09:24.277Z,8.80
2019-03-18T12:10:25.337Z,9.00
2019-03-18T12:11:22.846Z,9.20
2019-03-18T12:12:23.032Z,8.50
2019-03-18T12:13:22.795Z,6.90
2019-03-18T12:14:22.860Z,7.60
2019-03-18T12:15:25.764Z,7.50
2019-03-18T12:16:22.767Z,8.50
2019-03-18T12:17:23.685Z,7.60
2019-03-18T12:18:22.904Z,7.20
2019-03-18T12:19:23.256Z,9.50
2019-03-18T12:20:25.487Z,7.90
2019-03-18T12:21:22.768Z,9.10
2019-03-18T12:22:22.680Z,12.20
2019-03-18T12:23:22.687Z,10.20
2019-03-18T12:24:22.654Z,9.30
2019-03-18T12:25:22.634Z,7.90
2019-03-18T12:26:22.637Z,10.40
2019-03-18T12:27:22.625Z,7.20
2019-03-18T12:28:22.605Z,5.40
2019-03-18T12:29:22.584Z,8.50
2019-03-18T12:30:22.580Z,5.60
2019-03-18T12:31:22.587Z,9.30
2019-03-18T12:32:22.552Z,8.20
2019-03-18T12:33:22.546Z,5.60
2019-03-18T12:34:22.530Z,6.20
2019-03-18T12:35:22.515Z,8.10
2019-03-18T12:36:22.537Z,8.20
2019-03-18T12:37:22.513Z,9.40
2019-03-18T12:38:22.496Z,6.20
2019-03-18T12:39:24.736Z,6.80
2019-03-18T12:40:22.462Z,11.30
2019-03-18T12:41:22.480Z,9.40
2019-03-18T12:42:22.447Z,8.20
2019-03-18T12:43:22.457Z,7.70
2019-03-18T12:44:22.420Z,9.90
2019-03-18T12:45:22.451Z,7.40
2019-03-18T12:46:22.428Z,9.50
2019-03-18T12:47:22.405Z,9.10
2019-03-18T12:48:22.390Z,7.60
2019-03-18T12:49:22.377Z,12.30
2019-03-18T12:50:38.641Z,8.80
2019-03-18T12:51:22.359Z,10.00
2019-03-18T12:52:22.349Z,10.00
2019-03-18T12:53:22.331Z,10.60
2019-03-18T12:54:22.363Z,10.70
2019-03-18T12:55:22.309Z,9.80
2019-03-18T12:56:22.312Z,10.10
2019-03-18T12:57:22.299Z,10.60
2019-03-18T12:58:22.301Z,11.50
2019-03-18T12:59:22.295Z,9.40
2019-03-18T13:00:22.257Z,9.00
2019-03-18T13:01:22.329Z,10.60
2019-03-18T13:02:22.371Z,8.30
2019-03-18T13:03:22.227Z,6.70
2019-03-18T13:04:22.246Z,8.20
2019-03-18T13:05:22.205Z,9.70
2019-03-18T13:06:22.215Z,10.20
2019-03-18T13:07:22.174Z,9.80
2019-03-18T13:08:22.168Z,9.70
2019-03-18T13:09:22.175Z,8.60